createdAt,value
2022-12-25T00:00:32.895Z,131.80
2022-12-25T00:01:32.852Z,125.90
2022-12-25T00:02:32.909Z,136.20
2022-12-25T00:03:32.889Z,139.20
2022-12-25T00:04:32.715Z,131.60
2022-12-25T00:05:32.672Z,117.80
2022-12-25T00:06:32.650Z,117.90
2022-12-25T00:07:32.599Z,140.10
2022-12-25T00:08:32.552Z,138.30
2022-12-25T00:09:32.522Z,142.90
2022-12-25T00:10:32.482Z,142.60
2022-12-25T00:11:32.454Z,128.10
2022-12-25T00:12:32.390Z,152.80
2022-12-25T00:13:32.353Z,151.10
2022-12-25T00:14:32.304Z,127.10
2022-12-25T00:15:32.294Z,131.90
2022-12-25T00:16:32.323Z,132.60
2022-12-25T00:17:32.195Z,117.30
2022-12-25T00:18:32.142Z,133.40
2022-12-25T00:19:32.119Z,127.50
2022-12-25T00:20:32.054Z,132.90
2022-12-25T00:21:32.036Z,124.10
2022-12-25T00:22:31.985Z,130.20
2022-12-25T00:23:31.936Z,132.50
2022-12-25T00:24:31.907Z,124.30
2022-12-25T00:25:31.855Z,118.70
2022-12-25T00:26:31.827Z,111.40
2022-12-25T00:27:31.805Z,116.40
2022-12-25T00:28:31.734Z,111.10
2022-12-25T00:29:31.720Z,103.10
2022-12-25T00:30:31.679Z,94.40
2022-12-25T00:31:31.670Z,106.50
2022-12-25T00:32:31.601Z,103.40
2022-12-25T00:33:31.567Z,96.90
2022-12-25T00:34:31.508Z,101.50
2022-12-25T00:35:31.476Z,93.80
2022-12-25T00:36:36.263Z,102.60
2022-12-25T00:37:32.402Z,104.60
2022-12-25T00:38:31.370Z,106.00
2022-12-25T00:39:31.309Z,103.80
2022-12-25T00:40:31.259Z,101.80
2022-12-25T00:41:31.220Z,101.40
2022-12-25T00:42:31.178Z,110.40
2022-12-25T00:43:31.151Z,104.90
2022-12-25T00:44:31.112Z,115.00
2022-12-25T00:45:31.116Z,120.10
2022-12-25T00:46:31.051Z,113.90
2022-12-25T00:47:31.025Z,119.80
2022-12-25T00:48:30.941Z,127.80
2022-12-25T00:49:30.911Z,135.40
2022-12-25T00:50:30.849Z,138.10
2022-12-25T00:51:30.805Z,138.60
2022-12-25T00:52:30.753Z,139.00
2022-12-25T00:53:30.724Z,137.90
2022-12-25T00:54:30.694Z,131.70
2022-12-25T00:55:30.633Z,139.60
2022-12-25T00:56:30.616Z,137.90
2022-12-25T00:57:30.561Z,133.50
2022-12-25T00:58:30.521Z,128.40
2022-12-25T00:59:30.486Z,132.20
2022-12-25T01:00:30.453Z,145.00
2022-12-25T01:01:30.653Z,135.30
2022-12-25T01:02:30.487Z,145.20
2022-12-25T01:03:30.415Z,139.20
2022-12-25T01:04:30.279Z,155.60
2022-12-25T01:05:30.254Z,139.30
2022-12-25T01:06:30.213Z,153.10
2022-12-25T01:07:30.182Z,158.80
2022-12-25T01:08:30.133Z,152.30
2022-12-25T01:09:30.106Z,164.80
2022-12-25T01:10:30.079Z,135.80
2022-12-25T01:11:30.044Z,148.40
2022-12-25T01:12:29.989Z,136.10
2022-12-25T01:13:29.946Z,141.20
2022-12-25T01:14:29.907Z,134.30
2022-12-25T01:15:29.877Z,140.00
2022-12-25T01:16:29.924Z,142.40
2022-12-25T01:17:29.767Z,123.50
2022-12-25T01:18:29.717Z,126.30
2022-12-25T01:19:29.698Z,138.00
2022-12-25T01:20:29.647Z,148.00
2022-12-25T01:21:29.628Z,137.90
2022-12-25T01:22:29.559Z,131.30
2022-12-25T01:23:29.527Z,123.00
2022-12-25T01:24:29.477Z,132.00
2022-12-25T01:25:29.449Z,149.00
2022-12-25T01:26:29.406Z,144.10
2022-12-25T01:27:29.360Z,125.10
2022-12-25T01:28:29.314Z,263.60
2022-12-25T01:29:29.295Z,165.10
2022-12-25T01:30:36.258Z,153.80
2022-12-25T01:31:29.302Z,138.10
2022-12-25T01:32:29.156Z,140.00
2022-12-25T01:33:29.126Z,128.90
2022-12-25T01:34:29.085Z,133.70
2022-12-25T01:35:29.048Z,136.80
2022-12-25T01:36:29.010Z,135.00
2022-12-25T01:37:29.001Z,129.20
2022-12-25T01:38:28.928Z,121.10
2022-12-25T01:39:28.890Z,119.90
2022-12-25T01:40:28.840Z,137.10
2022-12-25T01:41:28.799Z,115.20
2022-12-25T01:42:28.762Z,130.50
2022-12-25T01:43:28.721Z,144.40
2022-12-25T01:44:28.669Z,140.70
2022-12-25T01:45:28.661Z,125.10
2022-12-25T01:46:28.610Z,151.10
2022-12-25T01:47:28.558Z,129.40
2022-12-25T01:48:28.535Z,162.90
2022-12-25T01:49:28.508Z,145.80
2022-12-25T01:50:28.430Z,157.80
2022-12-25T01:51:28.399Z,132.30
2022-12-25T01:52:28.351Z,132.40
2022-12-25T01:53:28.343Z,147.50
2022-12-25T01:54:28.275Z,140.20
2022-12-25T01:55:28.239Z,152.50
2022-12-25T01:56:28.194Z,142.00
2022-12-25T01:57:28.150Z,143.90
2022-12-25T01:58:28.112Z,170.50
2022-12-25T01:59:28.090Z,170.10
2022-12-25T02:00:28.030Z,148.50
2022-12-25T02:01:28.115Z,138.90
2022-12-25T02:02:28.152Z,146.00
2022-12-25T02:03:27.988Z,170.60
2022-12-25T02:04:27.882Z,165.80
2022-12-25T02:05:27.831Z,146.10
2022-12-25T02:06:27.784Z,198.70
2022-12-25T02:07:27.745Z,158.40
2022-12-25T02:08:27.706Z,186.40
2022-12-25T02:09:27.675Z,167.00
2022-12-25T02:10:27.617Z,162.20
2022-12-25T02:11:27.576Z,184.80
2022-12-25T02:12:27.539Z,165.00
2022-12-25T02:13:27.485Z,158.00
2022-12-25T02:14:27.444Z,151.70
2022-12-25T02:15:27.417Z,147.70
2022-12-25T02:16:27.373Z,161.20
2022-12-25T02:17:27.382Z,154.70
2022-12-25T02:18:27.271Z,167.10
2022-12-25T02:19:27.237Z,178.80
2022-12-25T02:20:27.226Z,177.10
2022-12-25T02:21:27.168Z,188.30
2022-12-25T02:22:27.121Z,152.50
2022-12-25T02:23:27.081Z,161.50
2022-12-25T02:24:27.060Z,153.70
2022-12-25T02:25:27.002Z,138.70
2022-12-25T02:26:26.952Z,169.10
2022-12-25T02:27:26.910Z,182.50
2022-12-25T02:28:26.872Z,147.20
2022-12-25T02:29:26.845Z,265.80
2022-12-25T02:30:26.793Z,156.00
2022-12-25T02:31:26.775Z,179.10
2022-12-25T02:32:26.710Z,168.10
2022-12-25T02:33:26.653Z,168.00
2022-12-25T02:34:26.605Z,162.40
2022-12-25T02:35:26.562Z,138.30
2022-12-25T02:36:26.529Z,280.10
2022-12-25T02:37:26.474Z,276.40
2022-12-25T02:38:26.418Z,161.40
2022-12-25T02:39:26.385Z,160.70
2022-12-25T02:40:26.347Z,120.20
2022-12-25T02:41:26.325Z,143.20
2022-12-25T02:42:26.267Z,182.20
2022-12-25T02:43:26.237Z,181.70
2022-12-25T02:44:26.207Z,123.60
2022-12-25T02:45:26.193Z,123.50
2022-12-25T02:46:26.210Z,136.40
2022-12-25T02:47:26.067Z,163.50
2022-12-25T02:48:26.018Z,170.30
2022-12-25T02:49:25.979Z,186.70
2022-12-25T02:50:25.925Z,163.70
2022-12-25T02:51:25.883Z,147.90
2022-12-25T02:52:25.849Z,152.50
2022-12-25T02:53:25.810Z,120.90
2022-12-25T02:54:25.761Z,120.10
2022-12-25T02:55:25.721Z,128.50
2022-12-25T02:56:25.676Z,118.40
2022-12-25T02:57:25.671Z,159.60
2022-12-25T02:58:25.585Z,131.30
2022-12-25T02:59:25.552Z,136.60
2022-12-25T03:00:25.489Z,124.60
2022-12-25T03:01:25.611Z,120.20
2022-12-25T03:02:25.529Z,115.60
2022-12-25T03:03:25.410Z,124.30
2022-12-25T03:04:25.311Z,126.60
2022-12-25T03:05:25.273Z,122.20
2022-12-25T03:06:25.235Z,109.60
2022-12-25T03:07:25.192Z,102.10
2022-12-25T03:08:25.169Z,107.90
2022-12-25T03:09:25.116Z,112.00
2022-12-25T03:10:25.082Z,116.60
2022-12-25T03:11:25.024Z,115.70
2022-12-25T03:12:24.992Z,116.70
2022-12-25T03:13:24.945Z,123.20
2022-12-25T03:14:24.939Z,115.10
2022-12-25T03:15:24.880Z,118.00
2022-12-25T03:16:24.901Z,133.00
2022-12-25T03:17:24.793Z,126.40
2022-12-25T03:18:24.746Z,127.10
2022-12-25T03:19:24.728Z,134.70
2022-12-25T03:20:24.674Z,123.50
2022-12-25T03:21:24.638Z,107.60
2022-12-25T03:22:24.604Z,114.10
2022-12-25T03:23:24.561Z,106.70
2022-12-25T03:24:24.533Z,106.90
2022-12-25T03:25:24.468Z,89.70
2022-12-25T03:26:24.442Z,116.70
2022-12-25T03:27:24.395Z,112.30
2022-12-25T03:28:24.346Z,98.30
2022-12-25T03:29:28.558Z,104.80
2022-12-25T03:30:25.269Z,116.20
2022-12-25T03:31:24.283Z,95.30
2022-12-25T03:32:24.187Z,144.40
2022-12-25T03:33:44.593Z,131.40
2022-12-25T03:34:25.111Z,107.50
2022-12-25T03:35:24.072Z,101.50
2022-12-25T03:36:24.034Z,112.60
2022-12-25T03:37:23.980Z,112.40
2022-12-25T03:38:23.931Z,105.90
2022-12-25T03:39:23.882Z,101.50
2022-12-25T03:40:23.851Z,100.60
2022-12-25T03:41:23.801Z,112.50
2022-12-25T03:42:23.757Z,122.40
2022-12-25T03:43:23.707Z,117.90
2022-12-25T03:44:23.685Z,108.70
2022-12-25T03:45:23.632Z,109.40
2022-12-25T03:46:23.669Z,113.00
2022-12-25T03:47:23.552Z,105.70
2022-12-25T03:48:23.513Z,125.10
2022-12-25T03:49:23.462Z,110.00
2022-12-25T03:50:23.459Z,100.00
2022-12-25T03:51:23.387Z,91.20
2022-12-25T03:52:23.344Z,99.80
2022-12-25T03:53:23.282Z,91.80
2022-12-25T03:54:23.275Z,104.00
2022-12-25T03:55:23.213Z,107.00
2022-12-25T03:56:23.165Z,104.40
2022-12-25T03:57:23.133Z,120.50
2022-12-25T03:58:23.103Z,103.70
2022-12-25T03:59:23.762Z,121.70
2022-12-25T04:00:23.017Z,106.30
2022-12-25T04:01:23.087Z,104.10
2022-12-25T04:02:23.012Z,112.40
2022-12-25T04:03:22.906Z,107.00
2022-12-25T04:04:22.852Z,103.80
2022-12-25T04:05:22.828Z,100.80
2022-12-25T04:06:22.769Z,88.20
2022-12-25T04:07:22.727Z,97.00
2022-12-25T04:08:22.660Z,112.60
2022-12-25T04:09:22.601Z,103.70
2022-12-25T04:10:22.562Z,107.20
2022-12-25T04:11:22.531Z,108.00
2022-12-25T04:12:22.475Z,89.00
2022-12-25T04:13:22.426Z,110.70
2022-12-25T04:14:22.387Z,93.00
2022-12-25T04:15:22.354Z,110.30
2022-12-25T04:16:22.362Z,111.80
2022-12-25T04:17:22.267Z,83.80
2022-12-25T04:18:22.211Z,106.20
2022-12-25T04:19:22.182Z,113.20
2022-12-25T04:20:22.130Z,115.20
2022-12-25T04:21:22.089Z,116.30
2022-12-25T04:22:22.070Z,118.00
2022-12-25T04:23:22.010Z,122.60
2022-12-25T04:24:21.976Z,189.90
2022-12-25T04:25:21.945Z,121.40
2022-12-25T04:26:21.921Z,110.60
2022-12-25T04:27:21.853Z,107.00
2022-12-25T04:28:21.839Z,128.80
2022-12-25T04:29:21.775Z,124.20
2022-12-25T04:30:21.727Z,116.40
2022-12-25T04:31:21.807Z,121.70
2022-12-25T04:32:21.660Z,100.30
2022-12-25T04:33:21.628Z,120.40
2022-12-25T04:34:21.585Z,123.10
2022-12-25T04:35:21.540Z,117.60
2022-12-25T04:36:21.496Z,126.90
2022-12-25T04:37:21.459Z,121.90
2022-12-25T04:38:21.437Z,128.40
2022-12-25T04:39:21.367Z,131.50
2022-12-25T04:40:21.342Z,130.00
2022-12-25T04:41:21.267Z,124.70
2022-12-25T04:42:21.237Z,129.90
2022-12-25T04:43:21.197Z,119.20
2022-12-25T04:44:21.175Z,130.80
2022-12-25T04:45:21.096Z,116.80
2022-12-25T04:46:21.095Z,122.10
2022-12-25T04:47:21.011Z,117.80
2022-12-25T04:48:20.976Z,113.00
2022-12-25T04:49:20.945Z,114.40
2022-12-25T04:50:20.889Z,112.90
2022-12-25T04:51:20.830Z,106.50
2022-12-25T04:52:20.799Z,122.70
2022-12-25T04:53:20.752Z,119.40
2022-12-25T04:54:20.719Z,84.50
2022-12-25T04:55:20.662Z,131.10
2022-12-25T04:56:20.636Z,116.00
2022-12-25T04:57:20.582Z,123.60
2022-12-25T04:58:20.544Z,121.30
2022-12-25T04:59:20.493Z,130.00
2022-12-25T05:00:20.471Z,118.00
2022-12-25T05:01:20.480Z,120.40
2022-12-25T05:02:20.509Z,121.40
2022-12-25T05:03:20.371Z,135.90
2022-12-25T05:04:20.296Z,121.20
2022-12-25T05:05:20.243Z,112.20
2022-12-25T05:06:20.203Z,121.80
2022-12-25T05:07:20.163Z,119.50
2022-12-25T05:08:20.126Z,117.50
2022-12-25T05:09:20.084Z,110.40
2022-12-25T05:11:09.589Z,106.40
2022-12-25T05:12:09.541Z,106.50
2022-12-25T05:13:09.497Z,106.40
2022-12-25T05:14:09.470Z,111.40
2022-12-25T05:15:09.408Z,115.00
2022-12-25T05:16:09.440Z,112.60
2022-12-25T05:17:09.348Z,104.70
2022-12-25T05:18:09.298Z,98.20
2022-12-25T05:19:09.258Z,104.40
2022-12-25T05:20:09.211Z,113.10
2022-12-25T05:21:09.192Z,120.20
2022-12-25T05:22:09.129Z,102.10
2022-12-25T05:23:09.091Z,118.70
2022-12-25T05:24:09.050Z,120.90
2022-12-25T05:25:09.010Z,120.00
2022-12-25T05:26:08.979Z,124.40
2022-12-25T05:27:08.948Z,109.70
2022-12-25T05:28:08.910Z,130.60
2022-12-25T05:29:08.848Z,122.40
2022-12-25T05:30:08.810Z,120.60
2022-12-25T05:31:08.779Z,108.20
2022-12-25T05:32:08.731Z,121.50
2022-12-25T05:33:08.692Z,108.30
2022-12-25T05:34:08.644Z,106.80
2022-12-25T05:35:08.603Z,113.60
2022-12-25T05:36:08.593Z,117.90
2022-12-25T05:37:08.543Z,113.80
2022-12-25T05:38:08.470Z,119.10
2022-12-25T05:39:08.423Z,109.40
2022-12-25T05:40:08.387Z,120.30
2022-12-25T05:41:08.334Z,129.30
2022-12-25T05:42:08.294Z,104.90
2022-12-25T05:43:08.279Z,130.20
2022-12-25T05:44:08.220Z,126.50
2022-12-25T05:45:08.173Z,146.90
2022-12-25T05:46:08.178Z,144.10
2022-12-25T05:47:08.226Z,148.30
2022-12-25T05:48:08.054Z,137.90
2022-12-25T05:49:07.987Z,141.10
2022-12-25T05:50:07.946Z,149.80
2022-12-25T05:51:07.920Z,140.10
2022-12-25T05:52:07.860Z,127.90
2022-12-25T05:53:08.378Z,144.20
2022-12-25T05:54:07.758Z,127.50
2022-12-25T05:55:07.726Z,139.10
2022-12-25T05:56:07.669Z,148.80
2022-12-25T05:57:07.638Z,134.90
2022-12-25T05:58:07.598Z,143.30
2022-12-25T05:59:07.558Z,160.40
2022-12-25T06:00:07.499Z,153.70
2022-12-25T06:01:07.469Z,181.40
2022-12-25T06:02:07.663Z,187.80
2022-12-25T06:03:07.487Z,166.30
2022-12-25T06:04:12.181Z,197.20
2022-12-25T06:05:08.298Z,193.20
2022-12-25T06:06:07.294Z,180.20
2022-12-25T06:07:07.211Z,189.50
2022-12-25T06:08:07.163Z,187.60
2022-12-25T06:09:07.129Z,182.30
2022-12-25T06:10:07.090Z,194.00
2022-12-25T06:11:07.056Z,201.60
2022-12-25T06:12:06.996Z,193.40
2022-12-25T06:13:06.950Z,200.30
2022-12-25T06:14:06.909Z,192.20
2022-12-25T06:15:06.894Z,187.10
2022-12-25T06:16:06.885Z,175.90
2022-12-25T06:17:06.801Z,169.80
2022-12-25T06:18:06.768Z,164.10
2022-12-25T06:19:06.741Z,180.00
2022-12-25T06:20:06.712Z,171.90
2022-12-25T06:21:06.662Z,162.90
2022-12-25T06:22:06.633Z,172.70
2022-12-25T06:23:06.642Z,165.10
2022-12-25T06:24:06.653Z,174.60
2022-12-25T06:25:06.539Z,173.10
2022-12-25T06:26:06.492Z,172.10
2022-12-25T06:27:06.454Z,174.10
2022-12-25T06:28:06.411Z,159.20
2022-12-25T06:29:06.367Z,166.20
2022-12-25T06:30:06.326Z,176.40
2022-12-25T06:31:06.370Z,166.70
2022-12-25T06:32:06.330Z,177.00
2022-12-25T06:33:06.195Z,179.40
2022-12-25T06:34:06.164Z,167.70
2022-12-25T06:35:06.114Z,168.60
2022-12-25T06:36:06.102Z,166.40
2022-12-25T06:37:06.077Z,183.50
2022-12-25T06:38:06.030Z,187.10
2022-12-25T06:39:05.976Z,186.00
2022-12-25T06:40:05.938Z,175.70
2022-12-25T06:41:05.897Z,178.90
2022-12-25T06:42:05.876Z,165.90
2022-12-25T06:43:05.828Z,189.30
2022-12-25T06:44:05.791Z,178.00
2022-12-25T06:45:05.746Z,174.50
2022-12-25T06:46:05.803Z,177.70
2022-12-25T06:47:05.703Z,180.30
2022-12-25T06:48:05.632Z,182.90
2022-12-25T06:49:05.588Z,173.10
2022-12-25T06:50:05.571Z,185.40
2022-12-25T06:51:05.518Z,181.10
2022-12-25T06:52:05.490Z,191.60
2022-12-25T06:53:05.458Z,168.40
2022-12-25T06:54:05.406Z,178.00
2022-12-25T06:55:05.377Z,175.00
2022-12-25T06:56:05.337Z,181.10
2022-12-25T06:57:05.296Z,187.70
2022-12-25T06:58:05.251Z,181.60
2022-12-25T06:59:05.200Z,190.40
2022-12-25T07:00:05.168Z,170.90
2022-12-25T07:01:05.178Z,189.50
2022-12-25T07:02:05.189Z,191.50
2022-12-25T07:03:05.162Z,184.00
2022-12-25T07:04:04.991Z,175.60
2022-12-25T07:05:04.963Z,193.30
2022-12-25T07:06:04.922Z,197.00
2022-12-25T07:07:08.794Z,195.50
2022-12-25T07:08:04.832Z,181.40
2022-12-25T07:09:04.812Z,185.10
2022-12-25T07:10:04.787Z,194.80
2022-12-25T07:11:04.716Z,213.70
2022-12-25T07:12:04.682Z,209.60
2022-12-25T07:13:04.644Z,214.90
2022-12-25T07:14:04.631Z,203.70
2022-12-25T07:15:04.563Z,205.90
2022-12-25T07:16:04.562Z,207.70
2022-12-25T07:17:04.483Z,227.00
2022-12-25T07:18:04.452Z,216.50
2022-12-25T07:19:04.424Z,219.30
2022-12-25T07:20:04.386Z,218.00
2022-12-25T07:21:04.316Z,208.10
2022-12-25T07:22:04.285Z,217.10
2022-12-25T07:23:04.253Z,219.50
2022-12-25T07:24:04.232Z,237.30
2022-12-25T07:25:04.198Z,214.60
2022-12-25T07:26:04.150Z,212.50
2022-12-25T07:27:04.097Z,208.60
2022-12-25T07:28:04.070Z,218.10
2022-12-25T07:29:04.019Z,204.40
2022-12-25T07:30:03.983Z,210.30
2022-12-25T07:31:03.948Z,196.40
2022-12-25T07:32:03.976Z,212.30
2022-12-25T07:33:03.860Z,203.70
2022-12-25T07:34:03.827Z,196.30
2022-12-25T07:35:03.787Z,221.70
2022-12-25T07:36:03.762Z,222.00
2022-12-25T07:37:03.702Z,208.50
2022-12-25T07:38:03.669Z,226.70
2022-12-25T07:39:03.628Z,218.60
2022-12-25T07:40:03.590Z,208.80
2022-12-25T07:41:03.560Z,213.60
2022-12-25T07:42:03.501Z,210.50
2022-12-25T07:43:03.461Z,233.50
2022-12-25T07:44:03.421Z,223.90
2022-12-25T07:45:03.360Z,194.40
2022-12-25T07:46:03.449Z,209.00
2022-12-25T07:47:03.290Z,188.80
2022-12-25T07:48:05.897Z,227.70
2022-12-25T07:49:03.172Z,220.10
2022-12-25T07:50:03.149Z,216.70
2022-12-25T07:51:03.112Z,218.70
2022-12-25T07:52:03.071Z,211.90
2022-12-25T07:53:03.021Z,202.60
2022-12-25T07:54:02.981Z,208.60
2022-12-25T07:55:02.992Z,208.40
2022-12-25T07:56:02.915Z,193.10
2022-12-25T07:57:02.871Z,197.50
2022-12-25T07:58:02.830Z,194.40
2022-12-25T07:59:02.779Z,201.40
2022-12-25T08:00:02.732Z,191.70
2022-12-25T08:01:02.749Z,190.90
2022-12-25T08:02:02.999Z,183.40
2022-12-25T08:03:02.853Z,171.60
2022-12-25T08:04:02.613Z,179.40
2022-12-25T08:05:02.526Z,177.60
2022-12-25T08:06:02.480Z,177.90
2022-12-25T08:07:02.437Z,174.60
2022-12-25T08:08:02.416Z,179.60
2022-12-25T08:09:02.341Z,173.80
2022-12-25T08:10:02.308Z,179.90
2022-12-25T08:11:02.257Z,180.80
2022-12-25T08:12:02.240Z,194.60
2022-12-25T08:13:02.246Z,190.00
2022-12-25T08:14:02.144Z,192.90
2022-12-25T08:15:02.077Z,175.10
2022-12-25T08:16:02.038Z,190.00
2022-12-25T08:17:02.095Z,199.10
2022-12-25T08:18:01.973Z,197.20
2022-12-25T08:19:01.897Z,198.50
2022-12-25T08:20:01.855Z,177.00
2022-12-25T08:21:01.813Z,202.90
2022-12-25T08:22:01.771Z,195.50
2022-12-25T08:23:01.763Z,194.40
2022-12-25T08:24:01.685Z,203.30
2022-12-25T08:25:01.634Z,201.30
2022-12-25T08:26:05.079Z,194.60
2022-12-25T08:27:01.531Z,189.40
2022-12-25T08:28:01.532Z,190.60
2022-12-25T08:29:01.522Z,178.20
2022-12-25T08:30:01.422Z,182.80
2022-12-25T08:31:01.462Z,177.50
2022-12-25T08:32:01.333Z,174.90
2022-12-25T08:33:01.435Z,161.70
2022-12-25T08:34:01.276Z,164.80
2022-12-25T08:35:01.231Z,159.40
2022-12-25T08:36:01.191Z,169.80
2022-12-25T08:37:01.154Z,169.30
2022-12-25T08:38:01.105Z,161.00
2022-12-25T08:39:03.329Z,172.80
2022-12-25T08:40:01.066Z,182.20
2022-12-25T08:41:00.984Z,174.80
2022-12-25T08:42:00.962Z,172.70
2022-12-25T08:43:01.163Z,162.30
2022-12-25T08:44:00.872Z,191.40
2022-12-25T08:45:00.841Z,184.90
2022-12-25T08:46:00.918Z,186.90
2022-12-25T08:47:00.765Z,178.70
2022-12-25T08:48:00.729Z,181.60
2022-12-25T08:49:00.678Z,191.80
2022-12-25T08:50:00.647Z,209.00
2022-12-25T08:51:00.621Z,168.60
2022-12-25T08:52:00.588Z,178.10
2022-12-25T08:53:00.602Z,172.10
2022-12-25T08:54:00.961Z,173.20
2022-12-25T08:55:00.460Z,188.20
2022-12-25T08:56:00.439Z,187.50
2022-12-25T08:57:02.998Z,171.20
2022-12-25T08:58:00.339Z,188.50
2022-12-25T08:59:00.313Z,198.50
2022-12-25T09:00:00.285Z,198.60
2022-12-25T09:01:00.311Z,186.50
2022-12-25T09:02:00.333Z,153.10
2022-12-25T09:03:00.354Z,183.90
2022-12-25T09:04:00.112Z,174.50
2022-12-25T09:05:00.052Z,160.40
2022-12-25T09:06:00.013Z,154.30
2022-12-25T09:07:00.000Z,174.70
2022-12-25T09:07:59.930Z,170.90
2022-12-25T09:08:59.908Z,181.10
2022-12-25T09:09:59.866Z,166.30
2022-12-25T09:10:59.810Z,149.20
2022-12-25T09:11:59.782Z,146.70
2022-12-25T09:12:59.949Z,150.70
2022-12-25T09:13:59.706Z,149.00
2022-12-25T09:14:59.660Z,158.30
2022-12-25T09:15:59.691Z,160.30
2022-12-25T09:16:59.575Z,157.50
2022-12-25T09:17:59.545Z,147.50
2022-12-25T09:18:59.475Z,158.60
2022-12-25T09:19:59.439Z,137.20
2022-12-25T09:20:59.397Z,146.20
2022-12-25T09:21:59.355Z,149.90
2022-12-25T09:22:59.353Z,153.20
2022-12-25T09:23:59.274Z,158.00
2022-12-25T09:24:59.228Z,148.40
2022-12-25T09:25:59.191Z,163.60
2022-12-25T09:26:59.147Z,157.50
2022-12-25T09:27:59.133Z,145.10
2022-12-25T09:28:59.076Z,148.40
2022-12-25T09:29:59.027Z,146.80
2022-12-25T09:30:59.015Z,154.00
2022-12-25T09:31:58.959Z,148.00
2022-12-25T09:32:58.939Z,140.40
2022-12-25T09:33:58.895Z,140.60
2022-12-25T09:34:58.821Z,146.60
2022-12-25T09:35:58.784Z,149.10
2022-12-25T09:36:58.737Z,153.80
2022-12-25T09:37:58.688Z,148.70
2022-12-25T09:38:58.674Z,157.00
2022-12-25T09:39:58.608Z,152.80
2022-12-25T09:40:58.568Z,152.00
2022-12-25T09:41:58.578Z,152.40
2022-12-25T09:42:58.545Z,145.60
2022-12-25T09:43:58.460Z,145.30
2022-12-25T09:44:58.420Z,149.40
2022-12-25T09:45:58.410Z,143.70
2022-12-25T09:46:58.375Z,130.90
2022-12-25T09:47:58.310Z,138.00
2022-12-25T09:48:58.260Z,151.40
2022-12-25T09:49:58.238Z,150.40
2022-12-25T09:50:58.170Z,144.20
2022-12-25T09:51:58.142Z,159.70
2022-12-25T09:52:58.170Z,155.60
2022-12-25T09:53:58.041Z,143.00
2022-12-25T09:54:58.022Z,146.00
2022-12-25T09:55:57.965Z,141.50
2022-12-25T09:56:57.912Z,146.30
2022-12-25T09:57:57.879Z,131.30
2022-12-25T09:58:57.813Z,148.00
2022-12-25T09:59:57.779Z,136.50
2022-12-25T10:00:57.733Z,135.30
2022-12-25T10:01:57.717Z,127.30
2022-12-25T10:02:57.872Z,119.90
2022-12-25T10:03:57.629Z,128.90
2022-12-25T10:04:57.531Z,135.40
2022-12-25T10:05:57.521Z,135.90
2022-12-25T10:06:57.455Z,144.10
2022-12-25T10:07:57.412Z,107.00
2022-12-25T10:08:57.366Z,119.60
2022-12-25T10:09:57.323Z,123.60
2022-12-25T10:10:57.279Z,132.20
2022-12-25T10:11:57.234Z,128.60
2022-12-25T10:12:57.236Z,135.80
2022-12-25T10:13:57.128Z,139.30
2022-12-25T10:14:57.097Z,128.30
2022-12-25T10:15:57.099Z,93.00
2022-12-25T10:16:57.017Z,113.00
2022-12-25T10:17:56.958Z,114.60
2022-12-25T10:18:56.909Z,112.20
2022-12-25T10:19:56.871Z,133.90
2022-12-25T10:20:56.823Z,122.80
2022-12-25T10:21:56.789Z,129.40
2022-12-25T10:22:56.809Z,127.50
2022-12-25T10:23:56.710Z,128.00
2022-12-25T10:24:56.663Z,138.20
2022-12-25T10:25:56.627Z,135.20
2022-12-25T10:26:56.598Z,132.70
2022-12-25T10:27:56.530Z,116.30
2022-12-25T10:28:56.507Z,107.30
2022-12-25T10:29:56.455Z,109.60
2022-12-25T10:30:56.404Z,105.10
2022-12-25T10:31:56.367Z,114.80
2022-12-25T10:32:56.338Z,106.80
2022-12-25T10:33:56.268Z,108.10
2022-12-25T10:34:56.201Z,106.40
2022-12-25T10:35:56.151Z,93.60
2022-12-25T10:36:56.128Z,97.80
2022-12-25T10:37:56.070Z,91.60
2022-12-25T10:38:56.015Z,99.10
2022-12-25T10:39:55.962Z,85.30
2022-12-25T10:40:55.940Z,82.20
2022-12-25T10:41:55.864Z,71.70
2022-12-25T10:42:55.904Z,68.30
2022-12-25T10:43:55.757Z,65.40
2022-12-25T10:44:55.713Z,67.90
2022-12-25T10:45:55.725Z,64.70
2022-12-25T10:46:55.710Z,73.80
2022-12-25T10:48:03.461Z,70.70
2022-12-25T10:48:56.531Z,79.30
2022-12-25T10:49:55.475Z,67.10
2022-12-25T10:50:55.424Z,64.50
2022-12-25T10:51:55.399Z,66.20
2022-12-25T10:52:55.390Z,68.60
2022-12-25T10:53:55.332Z,64.60
2022-12-25T10:54:55.242Z,62.60
2022-12-25T10:55:55.220Z,51.90
2022-12-25T10:56:55.171Z,67.30
2022-12-25T10:57:55.117Z,64.10
2022-12-25T10:58:55.066Z,55.40
2022-12-25T10:59:55.037Z,62.00
2022-12-25T11:00:54.978Z,58.90
2022-12-25T11:01:55.513Z,57.50
2022-12-25T11:02:55.155Z,55.90
2022-12-25T11:03:54.862Z,60.00
2022-12-25T11:04:54.786Z,59.60
2022-12-25T11:05:54.707Z,59.80
2022-12-25T11:06:54.676Z,54.60
2022-12-25T11:07:54.619Z,63.20
2022-12-25T11:08:54.576Z,56.10
2022-12-25T11:09:57.808Z,58.20
2022-12-25T11:10:55.483Z,55.60
2022-12-25T11:11:54.417Z,58.90
2022-12-25T11:12:54.478Z,57.20
2022-12-25T11:13:54.309Z,63.90
2022-12-25T11:14:54.283Z,63.40
2022-12-25T11:15:54.285Z,60.50
2022-12-25T11:16:54.178Z,52.70
2022-12-25T11:17:54.122Z,55.80
2022-12-25T11:18:54.082Z,59.70
2022-12-25T11:19:54.017Z,53.80
2022-12-25T11:20:53.987Z,57.90
2022-12-25T11:21:53.922Z,56.80
2022-12-25T11:22:53.833Z,49.80
2022-12-25T11:23:53.774Z,50.60
2022-12-25T11:24:53.725Z,44.00
2022-12-25T11:25:53.675Z,45.40
2022-12-25T11:26:53.608Z,37.70
2022-12-25T11:27:53.690Z,42.60
2022-12-25T11:28:53.475Z,36.90
2022-12-25T11:29:53.415Z,33.90
2022-12-25T11:30:53.417Z,33.90
2022-12-25T11:31:53.354Z,31.10
2022-12-25T11:32:53.236Z,25.10
2022-12-25T11:33:53.175Z,26.40
2022-12-25T11:34:53.120Z,21.30
2022-12-25T11:35:53.093Z,26.80
2022-12-25T11:36:53.009Z,25.10
2022-12-25T11:37:52.930Z,24.70
2022-12-25T11:38:52.892Z,17.80
2022-12-25T11:39:52.837Z,24.90
2022-12-25T11:40:52.769Z,25.00
2022-12-25T11:41:52.739Z,20.70
2022-12-25T11:42:52.682Z,25.60
2022-12-25T11:43:52.618Z,27.40
2022-12-25T11:44:52.558Z,23.50
2022-12-25T11:45:52.513Z,23.90
2022-12-25T11:46:52.541Z,24.60
2022-12-25T11:47:52.414Z,23.60
2022-12-25T11:48:52.351Z,27.00
2022-12-25T11:49:56.106Z,24.30
2022-12-25T11:50:53.250Z,25.90
2022-12-25T11:51:52.179Z,23.80
2022-12-25T11:52:52.151Z,24.20
2022-12-25T11:53:52.071Z,27.00
2022-12-25T11:54:52.011Z,29.10
2022-12-25T11:55:51.973Z,26.60
2022-12-25T11:56:51.904Z,27.50
2022-12-25T11:57:51.853Z,24.60
2022-12-25T11:58:51.805Z,28.00
2022-12-25T11:59:51.764Z,28.40
2022-12-25T12:00:51.696Z,22.40
2022-12-25T12:01:51.691Z,18.80
2022-12-25T12:02:51.732Z,21.10
2022-12-25T12:03:51.584Z,18.60
2022-12-25T12:04:51.464Z,20.90
2022-12-25T12:05:51.403Z,17.90
2022-12-25T12:06:51.345Z,24.40
2022-12-25T12:07:51.294Z,16.40
2022-12-25T12:08:51.264Z,17.50
2022-12-25T12:09:51.185Z,18.10
2022-12-25T12:10:51.130Z,15.60
2022-12-25T12:11:51.066Z,25.00
2022-12-25T12:12:51.016Z,13.70
2022-12-25T12:13:50.966Z,16.50
2022-12-25T12:14:50.919Z,15.60
2022-12-25T12:15:50.853Z,19.50
2022-12-25T12:16:50.826Z,18.10
2022-12-25T12:17:50.749Z,15.30
2022-12-25T12:18:51.053Z,16.00
2022-12-25T12:19:50.647Z,15.30
2022-12-25T12:20:50.578Z,15.10
2022-12-25T12:21:50.531Z,15.90
2022-12-25T12:22:50.502Z,14.50
2022-12-25T12:23:50.422Z,14.20
2022-12-25T12:24:50.379Z,14.30
2022-12-25T12:25:50.307Z,12.20
2022-12-25T12:26:50.262Z,17.60
2022-12-25T12:27:50.201Z,16.90
2022-12-25T12:28:50.142Z,15.40
2022-12-25T12:29:50.100Z,13.20
2022-12-25T12:30:50.032Z,13.50
2022-12-25T12:31:50.122Z,13.50
2022-12-25T12:32:49.926Z,13.40